Flight Track Log - Related Links

Times and Time Zones

All times are in EDT time to prevent confusion due to time zone crossing. See the SWA268 flight status page for this flight to view local times or setup timezone preferences in your user account.

Time Position Orientation Groundspeed Altitude Reporting Facility
EDT Latitude Longitude Course Direction KTS MPH feet Rate Location/Type
Thu 12:16:00 PM 33.6511 -117.8847 340° North 144 166 29,000  Level Los Angeles Center
Thu 12:16:17 PM 33.6333 -117.8833 176° South 145 167 2,100 -25,377 Descending Southern California TRACON
Thu 12:17:01 PM 33.6081 -117.8986 207° Southwest 156 180 3,200 1,755 Climbing Los Angeles Center
Thu 12:18:03 PM 33.5478 -117.9108 190° South 225 259 5,200 2,952 Climbing Los Angeles Center
Thu 12:19:05 PM 33.5372 -117.9908 261° West 269 310 9,300 3,581 Climbing Los Angeles Center
Thu 12:20:07 PM 33.5542 -118.0856 282° West 291 335 12,600 3,290 Climbing Los Angeles Center
Thu 12:21:00 PM 33.7360 -118.0368 340° North  Level FlightAware Approximate
Thu 12:21:09 PM 33.6222 -118.1403 326° Northwest 334 384 16,100  Level Los Angeles Center
Thu 12:22:11 PM 33.7164 -118.0986 20° North 373 429 19,100 2,806 Climbing Los Angeles Center
Thu 12:23:13 PM 33.8094 -118.0342 30° Northeast 387 445 21,900 3,097 Climbing Los Angeles Center
Thu 12:24:15 PM 33.9161 -117.9342 38° Northeast 403 464 25,500 2,468 Climbing Los Angeles Center
Thu 12:25:17 PM 34.0081 -117.8517 37° Northeast 408 470 27,000 726 Climbing Los Angeles Center
Thu 12:26:19 PM 34.0972 -117.7647 39° Northeast 411 473 27,000  Level Los Angeles Center
Thu 12:27:21 PM 34.1592 -117.6792 49° Northeast 421 484 27,000  Level Los Angeles Center
Thu 12:28:23 PM 34.2514 -117.5539 48° Northeast 417 480 27,000  Level Los Angeles Center
Thu 12:29:25 PM 34.3283 -117.4486 48° Northeast 417 480 27,000  Level Los Angeles Center
Thu 12:30:27 PM 34.4097 -117.3375 48° Northeast 419 482 27,000  Level Los Angeles Center
Thu 12:31:29 PM 34.4861 -117.2331 48° Northeast 418 481 27,000  Level Los Angeles Center
Thu 12:32:31 PM 34.5783 -117.1069 48° Northeast 420 483 27,000  Level Los Angeles Center
Thu 12:33:33 PM 34.6542 -117.0014 49° Northeast 419 482 27,000  Level Los Angeles Center
Thu 12:34:35 PM 34.7297 -116.8981 48° Northeast 415 478 27,000  Level Los Angeles Center
Thu 12:35:37 PM 34.8047 -116.7947 49° Northeast 412 474 27,000  Level Los Angeles Center
Thu 12:36:39 PM 34.8794 -116.6914 49° Northeast 409 471 27,000  Level Los Angeles Center
Thu 12:37:41 PM 34.9686 -116.5669 49° Northeast 409 471 27,000 -823 Level Los Angeles Center
Thu 12:38:43 PM 35.0464 -116.4686 46° Northeast 407 468 25,300 -1,452 Descending Los Angeles Center
Thu 12:39:45 PM 35.1247 -116.3739 45° Northeast 403 464 24,000 -629 Descending Los Angeles Center
Thu 12:40:47 PM 35.2025 -116.2775 45° Northeast 400 460 24,000 -581 Level Los Angeles Center
Thu 12:41:49 PM 35.2786 -116.1811 46° Northeast 398 458 22,800 -1,440 Descending Los Angeles Center
Thu 12:42:52 PM 35.3550 -116.0850 46° Northeast 396 456 21,000 -1,968 Descending Los Angeles Center
Thu 12:43:54 PM 35.4428 -115.9711 47° Northeast 387 445 18,700 -2,093 Descending Los Angeles Center
Thu 12:44:18 PM 35.4725 -115.9350 45° Northeast 384 442 18,000 -1,742 Descending Los Angeles Center
Thu 12:44:56 PM 35.5144 -115.8786 48° Northeast 383 441 16,900 -1,900 Descending Los Angeles Center
Thu 12:45:18 PM 35.5458 -115.8433 42° Northeast 379 436 16,100 -1,742 Descending Los Angeles Center
Thu 12:45:58 PM 35.5858 -115.7906 47° Northeast 376 433 15,100 -1,869 Descending Los Angeles Center
Thu 12:46:19 PM 35.6169 -115.7519 45° Northeast 366 421 14,200 -1,645 Descending Los Angeles Center
Thu 12:47:00 PM 35.6564 -115.7042 45° Northeast 367 422 13,400 -1,180 Descending Los Angeles Center
Thu 12:47:20 PM 35.6850 -115.6667 47° Northeast 350 403 13,000 -290 Descending Los Angeles Center
Thu 12:48:02 PM 35.7297 -115.6100 46° Northeast 353 406 13,100  Climbing Los Angeles Center
Thu 12:48:21 PM 35.7531 -115.5814 45° Northeast 326 375 13,000  Descending Los Angeles Center
Thu 12:49:04 PM 35.8142 -115.5722 North 319 367 13,100  Climbing Los Angeles Center
Thu 12:49:22 PM 35.8389 -115.5694 North 309 356 13,000  Descending Los Angeles Center
Thu 12:50:06 PM 35.9014 -115.5656 North 316 364 13,100 98 Climbing Los Angeles Center
Thu 12:50:23 PM 35.9264 -115.5650 North 317 365 13,100 -387 Level Los Angeles Center
Thu 12:51:08 PM 35.9789 -115.5331 26° Northeast 312 359 12,700 -984 Descending Los Angeles Center
Thu 12:51:24 PM 35.9886 -115.5025 69° East 316 364 12,100 -1,258 Descending Los Angeles Center
Thu 12:52:10 PM 36.0117 -115.4369 66° East 309 356 11,400 -885 Descending Los Angeles Center
Thu 12:52:25 PM 36.0197 -115.4072 71° East 301 346 11,200 -667 Descending Los Angeles Center
Thu 12:53:13 PM 36.0289 -115.3467 79° East 292 336 10,700 -927 Descending Los Angeles Center
Thu 12:54:15 PM 36.0214 -115.2383 95° East 268 308 9,500 -1,065 Descending Los Angeles Center
Thu 12:55:17 PM 36.0150 -115.1492 95° East 266 306 8,500 -677 Descending Los Angeles Center
Thu 12:56:19 PM 36.0103 -115.0642 94° East 257 296 8,100 -629 Descending Los Angeles Center
Thu 12:57:21 PM 36.0111 -114.9950 89° East 221 254 7,200 -1,016 Descending Los Angeles Center
Thu 12:58:23 PM 36.0219 -114.9331 78° East 209 241 6,000 -1,248 Descending Los Angeles Center
Thu 12:59:26 PM 36.0706 -114.9631 333° Northwest 195 224 4,600 -1,113 Descending Los Angeles Center
Thu 01:00:27 PM 36.0747 -115.0247 275° West 184 212 3,700 -871 Descending Los Angeles Center
Thu 01:01:30 PM 36.0744 -115.0825 270° West 178 205 2,800 -816 Descending Los Angeles Center
Thu 01:02:32 PM 36.0744 -115.1311 270° West 161 185 2,000 -774 Descending Los Angeles Center
Thu 01:04:00 PM 36.0667 -115.1500 270° West  Level FlightAware Approximate

Login

Don't have an account? Register now (free) for customized features, flight alerts, and more!